Latest Coastal Weather Observations for Sydney Airport

IDN60701

Issued at 11:12 am EST Tuesday 3 May 2016 (issued every 10 minutes, with the page automatically refreshed every 10 minutes)

About coastal observations | Map of coastal stations | Coastal observations for NSW | Marine services | Other Formats
Station Details ID: 066037 Name: SYDNEY AIRPORT AMO Lat: -33.95 Lon: 151.17 Height: 6.0 m
Data from the previous 72 hours. | See also: Recent months at Sydney Airport
Date/Time
EST
Temp

°C
Wind Pressure Rain
since 9am
mm
Weather Cloud Vis
km
Sea
Height
m
Swell
Dir
 
Speed
knots
Gust
knots
hPa Trend Height
m
Period
s
Dir
03/11:00am 22.8 NW 11 17 1010.2 - 0.0 - - 10 - - - -
03/10:30am 22.1 NW 14 19 1011.1 - 0.0 - - 10 - - - -
03/10:25am 21.9 NW 14 19 1011.2 - 0.0 - - 10 - - - -
03/10:00am 20.0 NNW 5 7 1011.8 - 0.0 - - 10 - - - -
03/09:30am 19.4 WNW 5 6 1012.3 - 0.0 - - 10 - - - -
03/09:00am 18.1 WNW 5 8 1012.6 F 0.2 Fine Mostly clear 30 - - - -
03/08:30am 15.3 NW 5 6 1012.8 - 0.2 - - 10 - - - -
03/08:00am 16.1 NW 5 8 1012.8 - 0.2 - - 10 - - - -
03/07:30am 14.1 NW 5 6 1012.8 - 0.2 - - 10 - - - -
03/07:00am 13.8 NW 7 10 1012.4 - 0.2 - - 10 - - - -
03/06:30am 14.0 NW 9 11 1012.2 - 0.2 - - 10 - - - -
03/06:00am 12.6 NW 6 8 1012.0 S 0.2 Fine Clear 30 - - - -
03/05:30am 13.1 NNW 7 7 1011.9 - 0.2 - - 10 - - - -
03/05:00am 12.4 NNW 6 6 1011.6 - 0.2 - - 10 - - - -
03/04:30am 13.2 NNW 6 7 1011.5 - 0.2 - - 10 - - - -
03/04:00am 12.5 NW 5 7 1011.3 - 0.2 - - 10 - - - -
03/03:30am 13.4 NW 5 6 1011.3 - 0.2 - - 10 - - - -
03/03:00am 13.5 WNW 5 6 1011.5 F 0.2 Fine Clear 25 - - - -
03/02:30am 13.2 NW 5 6 1011.6 - 0.2 - - 10 - - - -
03/02:00am 13.9 WNW 5 6 1011.9 - 0.2 - - 10 - - - -
03/01:30am 14.7 WNW 5 6 1012.6 - 0.2 - - 10 - - - -
03/01:00am 15.2 WSW 5 6 1012.6 - 0.2 - - 10 - - - -
03/12:30am 15.6 W 5 6 1013.0 - 0.2 - - 10 - - - -
03/12:00am 15.8 SW 5 5 1013.3 F 0.2 Fine Mostly clear 25 - - - -
 
Date/Time
EST
Temp

°C
Wind Pressure Rain
since 9am
mm
Weather Cloud Vis
km
Sea
Height
m
Swell
Dir
 
Speed
knots
Gust
knots
hPa Trend Height
m
Period
s
Dir
02/11:30pm 15.6 SSW 5 6 1013.5 - 0.2 - - 10 - - - -
02/11:00pm 17.1 SSW 9 12 1013.6 - 0.2 - - 10 - - - -
02/10:30pm 16.9 SSW 3 6 1013.7 - 0.2 - - 10 - - - -
02/10:00pm 17.2 WSW 5 7 1014.2 - 0.2 - - 10 - - - -
02/09:30pm 17.5 SW 5 8 1014.0 - 0.2 - - 10 - - - -
02/09:00pm 17.8 SW 5 7 1013.6 R 0.2 Fine Mostly clear 25 - - - -
02/08:30pm 18.1 SSW 7 9 1013.6 - 0.2 - - 10 - - - -
02/08:00pm 20.5 NW 6 8 1013.5 - 0.2 - - 10 - - - -
02/07:30pm 20.9 NNW 6 7 1013.2 - 0.2 - - 10 - - - -
02/07:00pm 21.5 NW 8 11 1013.0 - 0.2 - - 10 - - - -
02/06:30pm 21.5 N 6 7 1012.6 - 0.2 - - 10 - - - -
02/06:00pm 21.5 NNW 4 5 1012.2 F 0.2 Fine Mostly cloudy 25 - - - -
02/05:30pm 21.2 NNE 5 5 1011.7 - 0.2 - - 10 - - - -
02/05:00pm 20.5 NNE 5 5 1011.6 - 0.2 - - 10 - - - -
02/04:30pm 20.5 NE 7 9 1011.7 - 0.2 - - 10 - - - -
02/04:00pm 20.9 NE 8 9 1012.0 - 0.2 - - 10 - - - -
02/03:30pm 21.3 NE 7 8 1012.3 - 0.2 - - 10 - - - -
02/03:00pm 20.9 ENE 8 10 1012.1 F 0.2 Fine Mostly cloudy 30 - - - -
02/02:30pm 21.0 ENE 9 11 1012.1 - 0.2 - - 10 - - - -
02/02:00pm 21.0 ENE 8 10 1012.1 - 0.2 - - 10 - - - -
02/01:30pm 21.5 ESE 11 14 1012.3 - 0.2 - - 10 - - - -
02/01:00pm 22.7 SE 8 11 1012.9 - 0.2 - - 10 - - - -
02/12:30pm 22.9 S 4 7 1013.9 - 0.2 - - 10 - - - -
02/12:00pm 23.1 WNW 5 8 1013.8 F 0.2 Fine Mostly clear 30 - - - -
02/11:30am 21.5 NNW 6 9 1014.5 - 0.2 - - 10 - - - -
02/11:00am 21.5 NNE 5 8 1015.2 - 0.2 - - 10 - - - -
02/10:30am 19.6 NNW 6 10 1015.8 - 0.0 - - 10 - - - -
02/10:00am 19.3 NW 6 9 1016.4 - 0.0 - - 10 - - - -
02/09:30am 19.0 WNW 6 7 1016.8 - 0.0 - - 10 - - - -
02/09:00am 18.3 WNW 7 9 1017.2 F 0.0 Fine Clear 30 - - - -
02/08:30am 17.3 WNW 7 9 1017.4 - 0.0 - - 10 - - - -
02/08:00am 16.5 WNW 5 6 1017.5 - 0.0 - - 10 - - - -
02/07:30am 15.7 NW 5 6 1017.4 - 0.0 - - 10 - - - -
02/07:00am 14.4 W 5 7 1017.3 - 0.0 - - 10 - - - -
02/06:30am 15.1 W 6 8 1017.3 - 0.0 - - 10 - - - -
02/06:00am 15.1 NNW 5 5 1017.0 R 0.0 Fine Clear 25 - - - -
02/05:30am 14.7 W 9 11 1016.8 - 0.0 - - 10 - - - -
02/05:00am 14.8 WSW 9 12 1016.6 - 0.0 - - 10 - - - -
02/04:30am 14.7 WSW 10 14 1016.2 - 0.0 - - 10 - - - -
02/04:00am 14.9 WSW 8 10 1016.0 - 0.0 - - 10 - - - -
02/03:30am 14.7 WSW 6 7 1016.0 - 0.0 - - 10 - - - -
02/03:00am 14.8 WSW 7 9 1015.8 R 0.0 Fine Clear 30 - - - -
02/02:30am 15.4 WSW 6 8 1015.9 - 0.0 - - 10 - - - -
02/02:00am 16.0 SW 6 7 1015.8 - 0.0 - - 10 - - - -
02/01:30am 16.3 WSW 9 11 1015.5 - 0.0 - - 10 - - - -
02/01:00am 16.4 WSW 12 15 1015.5 - 0.0 - - 10 - - - -
02/12:30am 16.9 WSW 11 14 1015.5 - 0.0 - - 10 - - - -
02/12:00am 17.5 WSW 13 15 1015.6 R 0.0 Fine Clear 30 - - - -
 
Date/Time
EST
Temp

°C
Wind Pressure Rain
since 9am
mm
Weather Cloud Vis
km
Sea
Height
m
Swell
Dir
 
Speed
knots
Gust
knots
hPa Trend Height
m
Period
s
Dir
01/11:30pm 17.7 WSW 13 15 1015.8 - 0.0 - - 10 - - - -
01/11:00pm 18.3 W 14 17 1015.5 - 0.0 - - 10 - - - -
01/10:30pm 18.9 W 14 17 1015.4 - 0.0 - - 10 - - - -
01/10:00pm 19.4 W 11 15 1015.2 - 0.0 - - 10 - - - -
01/09:30pm 20.0 W 13 16 1014.8 - 0.0 - - 10 - - - -
01/09:00pm 20.3 WSW 11 14 1014.2 R 0.0 Fine Clear 30 - - - -
01/08:30pm 20.8 WSW 11 14 1013.7 - 0.0 - - 10 - - - -
01/08:00pm 21.9 WSW 9 11 1013.0 - 0.0 - - 10 - - - -
01/07:30pm 22.5 W 11 15 1012.5 - 0.0 - - 10 - - - -
01/07:00pm 23.1 W 13 18 1011.8 - 0.0 - - 10 - - - -
01/06:30pm 24.5 WNW 11 15 1011.5 - 0.0 - - 10 - - - -
01/06:00pm 25.5 WNW 9 11 1011.1 R 0.0 Fine Partly cloudy 30 - - - -
01/05:30pm 26.2 WNW 15 21 1010.6 - 0.0 - - 10 - - - -
01/05:04pm 27.0 WNW 18 28 1010.1 - 0.0 - - 10 - - - -
01/05:00pm 26.9 WNW 20 28 1010.1 - 0.0 - - 10 - - - -
01/04:31pm 27.9 NW 20 30 1009.6 - 0.0 - - 10 - - - -
01/04:30pm 27.8 NW 20 28 1009.6 - 0.0 - - 10 - - - -
01/04:00pm 27.3 NNW 13 19 1009.2 - 0.0 - - 10 - - - -
01/03:30pm 27.0 N 15 22 1009.0 - 0.0 - Mostly clear 10 - - - -
01/03:00pm 27.0 N 16 19 1008.9 F 0.0 Fine Partly cloudy 30 - - - -
01/02:30pm 26.3 N 18 22 1009.1 - 0.0 - Mostly clear 10 - - - -
01/02:00pm 26.7 NNW 17 22 1009.3 - 0.0 - Mostly clear 10 - - - -
01/01:30pm 26.2 NNW 18 23 1009.4 - 0.0 - Mostly clear 10 - - - -
01/01:00pm 25.1 N 17 21 1009.7 - 0.0 - Mostly clear 10 - - - -
01/12:30pm 23.5 N 16 20 1010.3 - 0.0 - Mostly clear 10 - - - -
01/12:00pm 23.1 NNW 15 19 1011.2 F 0.0 Fine Mostly cloudy 40 - - - -
01/11:30am 22.8 N 16 21 1012.0 - 0.0 - Mostly clear 10 - - - -
01/11:00am 22.0 N 16 20 1012.6 - 0.0 - Mostly clear 10 - - - -
01/10:30am 22.1 N 16 19 1012.8 - 0.0 - Mostly clear 10 - - - -
01/10:00am 21.3 N 13 17 1012.7 - 0.0 - Mostly clear 10 - - - -
01/09:30am 21.1 N 14 17 1013.0 - 0.0 - Mostly clear 10 - - - -
01/09:00am 19.8 N 16 20 1012.9 F 2.0 Distant precip. Mostly cloudy 40 - - - -
01/08:30am 19.3 N 15 17 1013.5 - 2.0 - Mostly clear 10 - - - -
01/08:00am 19.1 N 13 15 1013.4 - 1.8 - Partly cloudy 10 - - - -
01/07:30am 18.9 N 11 14 1014.0 - 1.0 Rain Partly cloudy 10 - - - -
01/07:00am 18.3 N 11 14 1014.1 - 0.2 - Cloudy 10 - - - -
01/06:30am 17.6 NW 12 17 1013.7 - 0.0 Rain Partly cloudy 8 - - - -
01/06:00am 17.5 WNW 13 17 1013.0 F 0.0 Showers Mostly cloudy 16 - - - -
01/05:30am 17.5 WNW 7 13 1012.7 - 0.0 - - 10 - - - -
01/05:00am 18.2 NW 7 7 1012.0 - 0.0 - - 10 - - - -
01/04:30am 18.6 NW 4 5 1012.4 - 0.0 - Cloudy 10 - - - -
01/04:00am 18.3 NNW 5 7 1012.7 - 0.0 - Partly cloudy 10 - - - -
01/03:30am 18.0 NW 6 8 1012.9 - 0.0 - Partly cloudy 10 - - - -
01/03:00am 18.6 NW 6 7 1012.9 F 0.0 Fine Mostly clear 30 - - - -
01/02:30am 18.4 NNW 6 6 1013.2 - 0.0 - - 10 - - - -
01/02:00am 19.2 NW 6 7 1013.3 - 0.0 - - 10 - - - -
01/01:30am 19.3 NNW 5 6 1014.0 - 0.0 - - 10 - - - -
01/01:00am 19.3 NW 3 4 1014.0 - 0.0 - - 10 - - - -
01/12:30am 19.4 WNW 5 6 1014.8 - 0.0 - - 10 - - - -
01/12:00am 19.7 N 3 5 1014.8 F 0.0 Fine Clear 30 - - - -
 
Date/Time
EST
Temp

°C
Wind Pressure Rain
since 9am
mm
Weather Cloud Vis
km
Sea
Height
m
Swell
Dir
 
Speed
knots
Gust
knots
hPa Trend Height
m
Period
s
Dir
30/11:30pm 20.6 NW 6 7 1015.4 - 0.0 - - 10 - - - -
30/11:00pm 21.0 NW 7 12 1015.5 - 0.0 - - 10 - - - -
30/10:30pm 21.2 NNW 6 9 1015.9 - 0.0 - - 10 - - - -
30/10:00pm 21.6 NNW 6 7 1016.0 - 0.0 - - 10 - - - -
30/09:30pm 21.8 NNW 6 9 1016.3 - 0.0 - - 10 - - - -
30/09:00pm 22.1 N 7 9 1016.6 F 0.0 Fine Mostly clear 30 - - - -
30/08:30pm 22.1 N 9 10 1016.4 - 0.0 - Partly cloudy 10 - - - -
30/08:00pm 22.4 N 7 8 1016.5 - 0.0 - Partly cloudy 10 - - - -
30/07:30pm 22.8 N 7 8 1016.2 - 0.0 - - 10 - - - -
30/07:00pm 23.3 N 7 8 1016.2 - 0.0 - - 10 - - - -
30/06:30pm 23.8 NNE 7 8 1016.0 - 0.0 - - 10 - - - -
30/06:00pm 24.6 NE 8 9 1015.8 F 0.0 Fine Partly cloudy 30 - - - -
30/05:30pm 24.6 N 8 8 1015.6 - 0.0 - - 10 - - - -
30/05:00pm 25.3 N 7 8 1015.5 - 0.0 - - 10 - - - -
30/04:30pm 25.7 NNE 6 7 1015.5 - 0.0 - - 10 - - - -
30/04:00pm 26.1 NNE 6 7 1015.4 - 0.0 - Mostly clear 10 - - - -
30/03:30pm 26.0 NNW 5 6 1015.5 - 0.0 - Mostly clear 10 - - - -
30/03:00pm 26.6 NNW 5 7 1015.5 R 0.0 Fine Mostly cloudy 30 - - - -
30/02:30pm 26.8 NW 7 10 1015.5 - 0.0 - - 10 - - - -
30/02:00pm 25.7 NW 9 14 1015.6 - 0.0 - - 10 - - - -
30/01:30pm 25.4 NNW 11 15 1015.6 - 0.0 - - 10 - - - -
30/01:00pm 25.8 N 11 16 1015.7 - 0.0 - - 10 - - - -
30/12:30pm 25.5 NNW 13 18 1016.1 - 0.0 - - 10 - - - -
30/12:00pm 25.4 N 14 18 1016.7 F 0.0 Fine Mostly cloudy 25 - - - -
30/11:30am 24.6 N 12 15 1017.1 - 0.0 - - 10 - - - -

Other Formats:

Comma delimited format used in spreadsheet applications
http://www.bom.gov.au/fwo/IDN60701/IDN60701.94767.axf

JavaScript Object Notation format (JSON) in row-major order
http://www.bom.gov.au/fwo/IDN60701/IDN60701.94767.json